sensor_id;sensor_type;location;lat;lon;timestamp;pressure;altitude;pressure_sealevel;temperature;humidity
59787;BME280;45672;51.612;5.536;2023-01-28T00:01:14;102734.84;;;2.80;91.04
59787;BME280;45672;51.612;5.536;2023-01-28T00:03:40;102723.69;;;2.73;91.84
59787;BME280;45672;51.612;5.536;2023-01-28T00:06:09;102729.78;;;2.74;91.80
59787;BME280;45672;51.612;5.536;2023-01-28T00:08:35;102733.38;;;2.73;91.86
59787;BME280;45672;51.612;5.536;2023-01-28T00:11:01;102730.69;;;2.74;92.20
59787;BME280;45672;51.612;5.536;2023-01-28T00:13:28;102735.81;;;2.78;92.72
59787;BME280;45672;51.612;5.536;2023-01-28T00:16:04;102739.16;;;2.81;92.49
59787;BME280;45672;51.612;5.536;2023-01-28T00:18:31;102736.66;;;2.78;92.85
59787;BME280;45672;51.612;5.536;2023-01-28T00:21:09;102745.13;;;2.86;92.54
59787;BME280;45672;51.612;5.536;2023-01-28T00:23:36;102745.25;;;2.83;92.42
59787;BME280;45672;51.612;5.536;2023-01-28T00:26:05;102741.59;;;2.87;91.39
59787;BME280;45672;51.612;5.536;2023-01-28T00:28:31;102736.53;;;2.81;91.89
59787;BME280;45672;51.612;5.536;2023-01-28T00:30:56;102744.16;;;2.89;90.33
59787;BME280;45672;51.612;5.536;2023-01-28T00:33:23;102740.25;;;2.75;91.49
59787;BME280;45672;51.612;5.536;2023-01-28T00:36:00;102749.91;;;2.75;91.05
59787;BME280;45672;51.612;5.536;2023-01-28T00:38:26;102749.16;;;2.71;91.31
59787;BME280;45672;51.612;5.536;2023-01-28T00:40:52;102750.94;;;2.71;91.36
59787;BME280;45672;51.612;5.536;2023-01-28T00:43:18;102747.63;;;2.66;91.75
59787;BME280;45672;51.612;5.536;2023-01-28T00:45:43;102747.63;;;2.66;92.17
59787;BME280;45672;51.612;5.536;2023-01-28T00:48:08;102745.88;;;2.66;92.20
59787;BME280;45672;51.612;5.536;2023-01-28T00:50:34;102752.72;;;2.70;92.04
59787;BME280;45672;51.612;5.536;2023-01-28T00:52:59;102747.34;;;2.73;92.20
59787;BME280;45672;51.612;5.536;2023-01-28T00:55:25;102756.09;;;2.74;91.58
59787;BME280;45672;51.612;5.536;2023-01-28T00:57:52;102759.59;;;2.74;91.77
59787;BME280;45672;51.612;5.536;2023-01-28T01:00:18;102752.44;;;2.78;92.17
59787;BME280;45672;51.612;5.536;2023-01-28T01:02:45;102754.22;;;2.78;92.04
59787;BME280;45672;51.612;5.536;2023-01-28T01:05:11;102761.06;;;2.82;91.33
59787;BME280;45672;51.612;5.536;2023-01-28T01:07:36;102753.97;;;2.84;90.94
59787;BME280;45672;51.612;5.536;2023-01-28T01:10:18;102764.66;;;2.79;90.71
59787;BME280;45672;51.612;5.536;2023-01-28T01:12:48;102750.72;;;2.77;90.91
59787;BME280;45672;51.612;5.536;2023-01-28T01:15:15;102747.28;;;2.75;91.13
59787;BME280;45672;51.612;5.536;2023-01-28T01:17:42;102743.88;;;2.73;91.14
59787;BME280;45672;51.612;5.536;2023-01-28T01:20:19;102757.81;;;2.75;91.04
59787;BME280;45672;51.612;5.536;2023-01-28T01:22:45;102758.94;;;2.68;90.70
59787;BME280;45672;51.612;5.536;2023-01-28T01:25:12;102749.47;;;2.64;89.78
59787;BME280;45672;51.612;5.536;2023-01-28T01:27:38;102754.13;;;2.55;89.66
59787;BME280;45672;51.612;5.536;2023-01-28T01:30:04;102750.72;;;2.53;90.00
59787;BME280;45672;51.612;5.536;2023-01-28T01:32:31;102747.97;;;2.56;89.51
59787;BME280;45672;51.612;5.536;2023-01-28T01:34:57;102743.50;;;2.58;90.37
59787;BME280;45672;51.612;5.536;2023-01-28T01:37:22;102752.19;;;2.61;90.80
59787;BME280;45672;51.612;5.536;2023-01-28T01:39:47;102750.38;;;2.63;90.96
59787;BME280;45672;51.612;5.536;2023-01-28T01:42:14;102753.69;;;2.68;90.25
59787;BME280;45672;51.612;5.536;2023-01-28T01:45:28;102756.38;;;2.66;90.74
59787;BME280;45672;51.612;5.536;2023-01-28T01:48:03;102761.56;;;2.68;90.56
59787;BME280;45672;51.612;5.536;2023-01-28T01:50:36;102761.56;;;2.68;90.43
59787;BME280;45672;51.612;5.536;2023-01-28T01:53:09;102758.09;;;2.67;89.96
59787;BME280;45672;51.612;5.536;2023-01-28T01:55:37;102763.38;;;2.66;90.84
59787;BME280;45672;51.612;5.536;2023-01-28T01:58:06;102759.00;;;2.66;91.10
59787;BME280;45672;51.612;5.536;2023-01-28T02:00:33;102764.16;;;2.69;91.25
59787;BME280;45672;51.612;5.536;2023-01-28T02:02:59;102758.78;;;2.72;91.01
59787;BME280;45672;51.612;5.536;2023-01-28T02:05:25;102762.22;;;2.74;91.16
59787;BME280;45672;51.612;5.536;2023-01-28T02:07:53;102758.66;;;2.75;90.37
59787;BME280;45672;51.612;5.536;2023-01-28T02:10:39;102770.25;;;2.70;89.80
59787;BME280;45672;51.612;5.536;2023-01-28T02:13:05;102757.22;;;2.67;89.96
59787;BME280;45672;51.612;5.536;2023-01-28T02:15:30;102769.63;;;2.63;90.35
59787;BME280;45672;51.612;5.536;2023-01-28T02:17:56;102768.63;;;2.67;89.81
59787;BME280;45672;51.612;5.536;2023-01-28T02:20:25;102768.94;;;2.58;90.05
59787;BME280;45672;51.612;5.536;2023-01-28T02:23:20;102768.81;;;2.61;90.54
59787;BME280;45672;51.612;5.536;2023-01-28T02:28:44;102766.63;;;2.49;91.08
59787;BME280;45672;51.612;5.536;2023-01-28T02:31:51;102760.47;;;2.50;91.63
59787;BME280;45672;51.612;5.536;2023-01-28T02:34:29;102762.00;;;2.55;90.10
59787;BME280;45672;51.612;5.536;2023-01-28T02:37:03;102757.91;;;2.48;89.73
59787;BME280;45672;51.612;5.536;2023-01-28T02:39:39;102760.53;;;2.48;89.34
59787;BME280;45672;51.612;5.536;2023-01-28T02:44:48;102756.88;;;2.52;90.21
59787;BME280;45672;51.612;5.536;2023-01-28T02:47:14;102753.22;;;2.56;89.83
59787;BME280;45672;51.612;5.536;2023-01-28T02:50:01;102757.78;;;2.51;89.98
59787;BME280;45672;51.612;5.536;2023-01-28T02:53:06;102766.41;;;2.55;90.03
59787;BME280;45672;51.612;5.536;2023-01-28T02:58:43;102760.19;;;2.57;89.77
59787;BME280;45672;51.612;5.536;2023-01-28T03:01:25;102765.41;;;2.59;89.73
59787;BME280;45672;51.612;5.536;2023-01-28T03:04:00;102767.97;;;2.61;89.55
59787;BME280;45672;51.612;5.536;2023-01-28T03:06:31;102770.59;;;2.61;88.85
59787;BME280;45672;51.612;5.536;2023-01-28T03:09:02;102768.16;;;2.54;88.80
59787;BME280;45672;51.612;5.536;2023-01-28T03:12:02;102765.47;;;2.57;88.71
59787;BME280;45672;51.612;5.536;2023-01-28T03:14:57;102778.59;;;2.57;87.80
59787;BME280;45672;51.612;5.536;2023-01-28T03:24:11;102778.91;;;2.48;87.90
59787;BME280;45672;51.612;5.536;2023-01-28T03:27:10;102773.59;;;2.50;88.06
59787;BME280;45672;51.612;5.536;2023-01-28T03:30:00;102772.38;;;2.35;88.54
59787;BME280;45672;51.612;5.536;2023-01-28T03:32:47;102781.00;;;2.38;89.43
59787;BME280;45672;51.612;5.536;2023-01-28T03:35:33;102771.44;;;2.37;90.35
59787;BME280;45672;51.612;5.536;2023-01-28T03:38:19;102780.28;;;2.35;90.40
59787;BME280;45672;51.612;5.536;2023-01-28T03:40:58;102777.84;;;2.29;91.27
59787;BME280;45672;51.612;5.536;2023-01-28T03:43:24;102777.16;;;2.23;91.88
59787;BME280;45672;51.612;5.536;2023-01-28T03:45:50;102771.78;;;2.27;92.35
59787;BME280;45672;51.612;5.536;2023-01-28T03:48:19;102766.47;;;2.28;92.21
59787;BME280;45672;51.612;5.536;2023-01-28T03:50:45;102768.47;;;2.21;92.18
59787;BME280;45672;51.612;5.536;2023-01-28T03:53:10;102771.19;;;2.18;92.80
59787;BME280;45672;51.612;5.536;2023-01-28T03:55:36;102769.47;;;2.17;92.74
59787;BME280;45672;51.612;5.536;2023-01-28T03:58:01;102774.72;;;2.17;92.77
59787;BME280;45672;51.612;5.536;2023-01-28T04:00:27;102788.88;;;2.13;93.37
59787;BME280;45672;51.612;5.536;2023-01-28T04:02:53;102791.50;;;2.13;93.60
59787;BME280;45672;51.612;5.536;2023-01-28T04:05:18;102791.50;;;2.13;93.67
59787;BME280;45672;51.612;5.536;2023-01-28T04:07:44;102796.66;;;2.16;93.44
59787;BME280;45672;51.612;5.536;2023-01-28T04:10:09;102798.41;;;2.16;94.00
59787;BME280;45672;51.612;5.536;2023-01-28T04:12:34;102805.44;;;2.15;93.46
59787;BME280;45672;51.612;5.536;2023-01-28T04:15:02;102795.91;;;2.13;93.89
59787;BME280;45672;51.612;5.536;2023-01-28T04:17:39;102802.88;;;2.14;93.62
59787;BME280;45672;51.612;5.536;2023-01-28T04:20:04;102803.81;;;2.11;94.04
59787;BME280;45672;51.612;5.536;2023-01-28T04:22:30;102793.38;;;2.10;94.07
59787;BME280;45672;51.612;5.536;2023-01-28T04:24:55;102800.31;;;2.12;94.27
59787;BME280;45672;51.612;5.536;2023-01-28T04:27:20;102794.13;;;2.13;93.63
59787;BME280;45672;51.612;5.536;2023-01-28T04:29:49;102800.34;;;2.11;94.07
59787;BME280;45672;51.612;5.536;2023-01-28T04:32:14;102796.84;;;2.10;93.88
59787;BME280;45672;51.612;5.536;2023-01-28T04:34:39;102800.41;;;2.09;93.89
59787;BME280;45672;51.612;5.536;2023-01-28T04:37:04;102774.50;;;1.98;93.70
59787;BME280;45672;51.612;5.536;2023-01-28T04:39:30;102780.53;;;2.00;94.17
59787;BME280;45672;51.612;5.536;2023-01-28T04:41:55;102782.09;;;2.08;94.20
59787;BME280;45672;51.612;5.536;2023-01-28T04:44:20;102787.16;;;2.12;93.70
59787;BME280;45672;51.612;5.536;2023-01-28T04:46:45;102783.59;;;2.13;93.78
59787;BME280;45672;51.612;5.536;2023-01-28T04:49:11;102790.69;;;2.11;93.79
59787;BME280;45672;51.612;5.536;2023-01-28T04:51:36;102799.41;;;2.12;93.32
59787;BME280;45672;51.612;5.536;2023-01-28T04:54:01;102799.53;;;2.09;93.52
59787;BME280;45672;51.612;5.536;2023-01-28T04:56:26;102806.50;;;2.10;92.71
59787;BME280;45672;51.612;5.536;2023-01-28T04:58:52;102798.03;;;2.01;93.23
59787;BME280;45672;51.612;5.536;2023-01-28T05:01:17;102799.97;;;1.96;93.60
59787;BME280;45672;51.612;5.536;2023-01-28T05:03:42;102811.16;;;2.01;93.85
59787;BME280;45672;51.612;5.536;2023-01-28T05:06:08;102809.41;;;2.02;92.91
59787;BME280;45672;51.612;5.536;2023-01-28T05:08:34;102805.94;;;2.00;92.66
59787;BME280;45672;51.612;5.536;2023-01-28T05:10:59;102796.41;;;1.97;91.71
59787;BME280;45672;51.612;5.536;2023-01-28T05:13:25;102799.91;;;1.98;91.46
59787;BME280;45672;51.612;5.536;2023-01-28T05:15:51;102811.31;;;1.97;91.56
59787;BME280;45672;51.612;5.536;2023-01-28T05:18:17;102813.03;;;1.98;90.96
59787;BME280;45672;51.612;5.536;2023-01-28T05:20:43;102815.72;;;1.95;89.87
59787;BME280;45672;51.612;5.536;2023-01-28T05:23:08;102815.84;;;1.92;90.17
59787;BME280;45672;51.612;5.536;2023-01-28T05:25:33;102804.44;;;1.93;88.81
59787;BME280;45672;51.612;5.536;2023-01-28T05:27:58;102806.28;;;1.91;88.80
59787;BME280;45672;51.612;5.536;2023-01-28T05:30:24;102804.50;;;1.91;88.45
59787;BME280;45672;51.612;5.536;2023-01-28T05:32:54;102802.59;;;1.96;88.12
59787;BME280;45672;51.612;5.536;2023-01-28T05:35:19;102798.19;;;1.97;87.14
59787;BME280;45672;51.612;5.536;2023-01-28T05:37:45;102799.97;;;1.96;86.34
59787;BME280;45672;51.612;5.536;2023-01-28T05:40:10;102789.41;;;1.98;86.71
59787;BME280;45672;51.612;5.536;2023-01-28T05:42:36;102798.13;;;1.98;87.06
59787;BME280;45672;51.612;5.536;2023-01-28T05:45:01;102793.59;;;2.03;86.95
59787;BME280;45672;51.612;5.536;2023-01-28T05:47:26;102793.50;;;2.06;86.54
59787;BME280;45672;51.612;5.536;2023-01-28T05:49:52;102799.63;;;2.05;86.27
59787;BME280;45672;51.612;5.536;2023-01-28T05:52:17;102802.31;;;2.04;86.37
59787;BME280;45672;51.612;5.536;2023-01-28T05:54:42;102803.16;;;2.04;86.43
59787;BME280;45672;51.612;5.536;2023-01-28T05:57:08;102805.06;;;2.01;85.93
59787;BME280;45672;51.612;5.536;2023-01-28T05:59:33;102811.19;;;2.00;85.72
59787;BME280;45672;51.612;5.536;2023-01-28T06:01:59;102801.59;;;1.99;84.94
59787;BME280;45672;51.612;5.536;2023-01-28T06:04:24;102812.25;;;1.94;85.09
59787;BME280;45672;51.612;5.536;2023-01-28T06:06:49;102806.91;;;1.97;85.27
59787;BME280;45672;51.612;5.536;2023-01-28T06:09:15;102806.16;;;1.94;85.95
59787;BME280;45672;51.612;5.536;2023-01-28T06:11:40;102807.84;;;1.95;86.01
59787;BME280;45672;51.612;5.536;2023-01-28T06:14:05;102811.53;;;1.89;85.87
59787;BME280;45672;51.612;5.536;2023-01-28T06:16:31;102809.91;;;1.86;84.64
59787;BME280;45672;51.612;5.536;2023-01-28T06:18:56;102818.72;;;1.84;84.24
59787;BME280;45672;51.612;5.536;2023-01-28T06:21:21;102810.97;;;1.81;84.96
59787;BME280;45672;51.612;5.536;2023-01-28T06:23:46;102812.66;;;1.82;85.23
59787;BME280;45672;51.612;5.536;2023-01-28T06:26:12;102810.03;;;1.82;85.19
59787;BME280;45672;51.612;5.536;2023-01-28T06:28:37;102811.66;;;1.86;85.00
59787;BME280;45672;51.612;5.536;2023-01-28T06:31:02;102808.06;;;1.88;85.43
59787;BME280;45672;51.612;5.536;2023-01-28T06:33:28;102809.78;;;1.89;85.10
59787;BME280;45672;51.612;5.536;2023-01-28T06:35:53;102821.25;;;1.87;84.72
59787;BME280;45672;51.612;5.536;2023-01-28T06:38:19;102815.16;;;1.86;84.15
59787;BME280;45672;51.612;5.536;2023-01-28T06:40:50;102810.06;;;1.80;83.62
59787;BME280;45672;51.612;5.536;2023-01-28T06:43:15;102825.22;;;1.72;84.07
59787;BME280;45672;51.612;5.536;2023-01-28T06:45:40;102826.13;;;1.71;84.17
59787;BME280;45672;51.612;5.536;2023-01-28T06:48:06;102824.41;;;1.70;83.38
59787;BME280;45672;51.612;5.536;2023-01-28T06:50:31;102809.72;;;1.64;83.95
59787;BME280;45672;51.612;5.536;2023-01-28T06:52:56;102820.16;;;1.66;83.81
59787;BME280;45672;51.612;5.536;2023-01-28T06:55:21;102824.41;;;1.70;83.40
59787;BME280;45672;51.612;5.536;2023-01-28T06:57:47;102823.50;;;1.71;82.69
59787;BME280;45672;51.612;5.536;2023-01-28T07:00:12;102818.44;;;1.65;83.15
59787;BME280;45672;51.612;5.536;2023-01-28T07:02:40;102827.22;;;1.64;83.57
59787;BME280;45672;51.612;5.536;2023-01-28T07:05:06;102837.53;;;1.70;83.61
59787;BME280;45672;51.612;5.536;2023-01-28T07:07:31;102833.09;;;1.72;83.08
59787;BME280;45672;51.612;5.536;2023-01-28T07:09:57;102831.34;;;1.72;83.70
59787;BME280;45672;51.612;5.536;2023-01-28T07:12:22;102839.25;;;1.71;83.90
59787;BME280;45672;51.612;5.536;2023-01-28T07:14:47;102830.47;;;1.72;83.35
59787;BME280;45672;51.612;5.536;2023-01-28T07:17:13;102832.44;;;1.65;83.25
59787;BME280;45672;51.612;5.536;2023-01-28T07:19:38;102849.19;;;1.61;83.75
59787;BME280;45672;51.612;5.536;2023-01-28T07:22:03;102852.66;;;1.62;82.88
59787;BME280;45672;51.612;5.536;2023-01-28T07:24:29;102855.28;;;1.62;83.46
59787;BME280;45672;51.612;5.536;2023-01-28T07:26:54;102849.91;;;1.65;82.60
59787;BME280;45672;51.612;5.536;2023-01-28T07:29:20;102860.34;;;1.68;82.84
59787;BME280;45672;51.612;5.536;2023-01-28T07:31:45;102862.88;;;1.71;82.98
59787;BME280;45672;51.612;5.536;2023-01-28T07:34:10;102862.81;;;1.72;82.70
59787;BME280;45672;51.612;5.536;2023-01-28T07:36:36;102868.13;;;1.71;82.40
59787;BME280;45672;51.612;5.536;2023-01-28T07:39:01;102860.41;;;1.65;82.89
59787;BME280;45672;51.612;5.536;2023-01-28T07:41:26;102865.88;;;1.59;83.37
59787;BME280;45672;51.612;5.536;2023-01-28T07:43:53;102871.16;;;1.57;83.92
59787;BME280;45672;51.612;5.536;2023-01-28T07:46:18;102869.34;;;1.59;83.47
59787;BME280;45672;51.612;5.536;2023-01-28T07:48:43;102878.88;;;1.62;83.03
59787;BME280;45672;51.612;5.536;2023-01-28T07:51:10;102882.44;;;1.61;82.56
59787;BME280;45672;51.612;5.536;2023-01-28T07:53:35;102875.63;;;1.53;83.14
59787;BME280;45672;51.612;5.536;2023-01-28T07:56:01;102879.13;;;1.54;83.40
59787;BME280;45672;51.612;5.536;2023-01-28T07:58:26;102879.81;;;1.59;82.61
59787;BME280;45672;51.612;5.536;2023-01-28T08:00:56;102875.31;;;1.64;82.50
59787;BME280;45672;51.612;5.536;2023-01-28T08:03:22;102875.16;;;1.69;82.18
59787;BME280;45672;51.612;5.536;2023-01-28T08:05:49;102880.63;;;1.63;81.99
59787;BME280;45672;51.612;5.536;2023-01-28T08:08:16;102866.69;;;1.61;81.89
59787;BME280;45672;51.612;5.536;2023-01-28T08:10:41;102877.19;;;1.61;81.88
59787;BME280;45672;51.612;5.536;2023-01-28T08:13:08;102888.44;;;1.64;82.22
59787;BME280;45672;51.612;5.536;2023-01-28T08:15:34;102880.56;;;1.64;82.61
59787;BME280;45672;51.612;5.536;2023-01-28T08:17:59;102894.38;;;1.71;82.59
59787;BME280;45672;51.612;5.536;2023-01-28T08:20:26;102902.19;;;1.72;82.48
59787;BME280;45672;51.612;5.536;2023-01-28T08:22:52;102901.16;;;1.78;83.39
59787;BME280;45672;51.612;5.536;2023-01-28T08:25:18;102903.63;;;1.83;81.88
59787;BME280;45672;51.612;5.536;2023-01-28T08:27:44;102913.28;;;1.82;81.42
59787;BME280;45672;51.612;5.536;2023-01-28T08:30:10;102915.78;;;1.85;81.14
59787;BME280;45672;51.612;5.536;2023-01-28T08:32:35;102916.75;;;1.83;81.37
59787;BME280;45672;51.612;5.536;2023-01-28T08:35:01;102916.78;;;1.81;81.34
59787;BME280;45672;51.612;5.536;2023-01-28T08:37:26;102915.78;;;1.85;81.81
59787;BME280;45672;51.612;5.536;2023-01-28T08:39:52;102922.56;;;1.93;81.70
59787;BME280;45672;51.612;5.536;2023-01-28T08:42:17;102924.41;;;1.91;81.95
59787;BME280;45672;51.612;5.536;2023-01-28T08:44:42;102917.31;;;1.93;81.49
59787;BME280;45672;51.612;5.536;2023-01-28T08:47:08;102917.31;;;1.93;81.49
59787;BME280;45672;51.612;5.536;2023-01-28T08:49:33;102925.16;;;1.94;81.27
59787;BME280;45672;51.612;5.536;2023-01-28T08:51:58;102927.72;;;1.96;81.66
59787;BME280;45672;51.612;5.536;2023-01-28T08:54:23;102922.53;;;1.94;81.47
59787;BME280;45672;51.612;5.536;2023-01-28T08:56:49;102932.88;;;1.99;81.26
59787;BME280;45672;51.612;5.536;2023-01-28T08:59:16;102938.31;;;1.93;81.61
59787;BME280;45672;51.612;5.536;2023-01-28T09:01:41;102934.91;;;1.91;81.84
59787;BME280;45672;51.612;5.536;2023-01-28T09:04:06;102927.03;;;1.89;82.53
59787;BME280;45672;51.612;5.536;2023-01-28T09:06:32;102927.78;;;1.94;82.24
59787;BME280;45672;51.612;5.536;2023-01-28T09:08:58;102935.59;;;1.96;82.37
59787;BME280;45672;51.612;5.536;2023-01-28T09:11:25;102943.38;;;1.99;81.75
59787;BME280;45672;51.612;5.536;2023-01-28T09:13:50;102938.22;;;1.96;82.05
59787;BME280;45672;51.612;5.536;2023-01-28T09:16:15;102943.56;;;1.93;82.23
59787;BME280;45672;51.612;5.536;2023-01-28T09:18:41;102953.34;;;1.87;82.49
59787;BME280;45672;51.612;5.536;2023-01-28T09:21:07;102959.44;;;1.89;82.31
59787;BME280;45672;51.612;5.536;2023-01-28T09:23:34;102963.84;;;1.87;83.04
59787;BME280;45672;51.612;5.536;2023-01-28T09:26:00;102951.69;;;1.85;83.17
59787;BME280;45672;51.612;5.536;2023-01-28T09:28:26;102953.19;;;1.94;82.76
59787;BME280;45672;51.612;5.536;2023-01-28T09:30:51;102967.16;;;1.94;82.31
59787;BME280;45672;51.612;5.536;2023-01-28T09:33:16;102961.84;;;1.96;82.33
59787;BME280;45672;51.612;5.536;2023-01-28T09:35:41;102961.09;;;1.92;81.76
59787;BME280;45672;51.612;5.536;2023-01-28T09:38:07;102975.03;;;1.94;82.17
59787;BME280;45672;51.612;5.536;2023-01-28T09:40:39;102975.13;;;1.91;82.44
59787;BME280;45672;51.612;5.536;2023-01-28T09:43:26;102978.56;;;1.93;81.83
59787;BME280;45672;51.612;5.536;2023-01-28T09:45:57;102966.47;;;1.87;82.22
59787;BME280;45672;51.612;5.536;2023-01-28T09:48:43;102963.03;;;1.85;82.41
59787;BME280;45672;51.612;5.536;2023-01-28T09:51:58;102968.94;;;1.94;82.08
59787;BME280;45672;51.612;5.536;2023-01-28T09:54:33;102974.88;;;1.99;82.57
59787;BME280;45672;51.612;5.536;2023-01-28T09:57:12;102974.28;;;1.91;82.17
59787;BME280;45672;51.612;5.536;2023-01-28T09:59:41;102976.81;;;1.94;82.21
59787;BME280;45672;51.612;5.536;2023-01-28T10:02:26;102993.25;;;1.99;81.69
59787;BME280;45672;51.612;5.536;2023-01-28T10:05:05;102992.41;;;1.98;82.01
59787;BME280;45672;51.612;5.536;2023-01-28T10:08:06;102988.09;;;1.96;82.96
59787;BME280;45672;51.612;5.536;2023-01-28T10:10:49;102999.34;;;2.01;82.08
59787;BME280;45672;51.612;5.536;2023-01-28T10:16:18;103000.78;;;2.11;82.31
59787;BME280;45672;51.612;5.536;2023-01-28T10:18:56;102995.56;;;2.10;82.28
59787;BME280;45672;51.612;5.536;2023-01-28T10:21:49;102994.84;;;2.04;81.88
59787;BME280;45672;51.612;5.536;2023-01-28T10:24:23;102989.78;;;1.98;82.07
59787;BME280;45672;51.612;5.536;2023-01-28T10:26:50;102998.59;;;1.96;83.16
59787;BME280;45672;51.612;5.536;2023-01-28T10:29:26;103003.50;;;2.08;83.15
59787;BME280;45672;51.612;5.536;2023-01-28T10:32:19;102998.06;;;2.14;83.20
59787;BME280;45672;51.612;5.536;2023-01-28T10:34:39;102987.50;;;2.16;82.65
59787;BME280;45672;51.612;5.536;2023-01-28T10:37:05;102982.28;;;2.14;82.21
59787;BME280;45672;51.612;5.536;2023-01-28T10:39:30;102992.75;;;2.16;82.75
59787;BME280;45672;51.612;5.536;2023-01-28T10:41:55;102980.34;;;2.21;82.62
59787;BME280;45672;51.612;5.536;2023-01-28T10:44:41;102977.72;;;2.21;83.14
59787;BME280;45672;51.612;5.536;2023-01-28T10:47:26;102989.81;;;2.27;81.53
59787;BME280;45672;51.612;5.536;2023-01-28T10:49:53;102979.44;;;2.22;80.51
59787;BME280;45672;51.612;5.536;2023-01-28T10:52:22;102993.84;;;2.09;80.78
59787;BME280;45672;51.612;5.536;2023-01-28T10:55:01;102986.03;;;2.07;81.12
59787;BME280;45672;51.612;5.536;2023-01-28T10:57:28;102988.00;;;1.99;80.71
59787;BME280;45672;51.612;5.536;2023-01-28T10:59:53;102987.06;;;2.01;81.57
59787;BME280;45672;51.612;5.536;2023-01-28T11:02:31;102984.34;;;2.04;80.79
59787;BME280;45672;51.612;5.536;2023-01-28T11:05:20;102981.81;;;2.01;81.36
59787;BME280;45672;51.612;5.536;2023-01-28T11:07:47;102987.16;;;1.98;81.51
59787;BME280;45672;51.612;5.536;2023-01-28T11:10:34;102984.53;;;1.98;82.35
59787;BME280;45672;51.612;5.536;2023-01-28T11:13:05;102978.34;;;2.01;81.71
59787;BME280;45672;51.612;5.536;2023-01-28T11:15:31;102973.13;;;1.99;80.94
59787;BME280;45672;51.612;5.536;2023-01-28T11:18:02;102963.63;;;1.95;81.87
59787;BME280;45672;51.612;5.536;2023-01-28T11:20:37;102970.41;;;2.02;81.41
59787;BME280;45672;51.612;5.536;2023-01-28T11:23:03;102961.69;;;2.02;81.10
59787;BME280;45672;51.612;5.536;2023-01-28T11:25:31;102955.38;;;2.08;80.93
59787;BME280;45672;51.612;5.536;2023-01-28T11:27:58;102949.72;;;2.20;81.09
59787;BME280;45672;51.612;5.536;2023-01-28T11:30:30;102947.47;;;2.36;80.09
59787;BME280;45672;51.612;5.536;2023-01-28T11:35:36;102944.72;;;2.67;78.44
59787;BME280;45672;51.612;5.536;2023-01-28T11:38:01;102947.84;;;2.79;78.25
59787;BME280;45672;51.612;5.536;2023-01-28T11:40:28;102950.53;;;2.75;77.51
59787;BME280;45672;51.612;5.536;2023-01-28T11:42:54;102945.28;;;2.75;78.13
59787;BME280;45672;51.612;5.536;2023-01-28T11:45:56;102924.00;;;2.83;77.81
59787;BME280;45672;51.612;5.536;2023-01-28T11:51:37;102913.69;;;3.02;77.47
59787;BME280;45672;51.612;5.536;2023-01-28T11:57:57;102881.63;;;3.16;76.11
59787;BME280;45672;51.612;5.536;2023-01-28T12:00:20;102858.53;;;3.01;76.37
59787;BME280;45672;51.612;5.536;2023-01-28T12:03:01;102861.41;;;2.69;77.02
59787;BME280;45672;51.612;5.536;2023-01-28T12:05:50;102852.84;;;2.63;77.96
59787;BME280;45672;51.612;5.536;2023-01-28T12:08:32;102858.13;;;2.63;78.10
59787;BME280;45672;51.612;5.536;2023-01-28T12:13:50;102856.03;;;2.72;77.19
59787;BME280;45672;51.612;5.536;2023-01-28T12:27:46;102864.91;;;2.93;76.44
59787;BME280;45672;51.612;5.536;2023-01-28T12:30:46;102868.03;;;2.80;76.78
59787;BME280;45672;51.612;5.536;2023-01-28T12:41:28;102898.97;;;3.22;75.78
59787;BME280;45672;51.612;5.536;2023-01-28T12:43:59;102891.16;;;3.44;75.57
59787;BME280;45672;51.612;5.536;2023-01-28T12:49:23;102889.81;;;3.32;75.15
59787;BME280;45672;51.612;5.536;2023-01-28T12:57:20;102898.13;;;3.21;75.47
59787;BME280;45672;51.612;5.536;2023-01-28T13:02:57;102884.94;;;2.98;76.05
59787;BME280;45672;51.612;5.536;2023-01-28T13:05:31;102896.25;;;3.00;76.61
59787;BME280;45672;51.612;5.536;2023-01-28T13:08:31;102899.09;;;3.19;77.56
59787;BME280;45672;51.612;5.536;2023-01-28T13:10:59;102897.81;;;3.29;74.35
59787;BME280;45672;51.612;5.536;2023-01-28T13:15:54;102886.16;;;3.36;74.36
59787;BME280;45672;51.612;5.536;2023-01-28T13:21:06;102880.16;;;3.33;74.08
59787;BME280;45672;51.612;5.536;2023-01-28T13:28:35;102876.16;;;3.46;74.01
59787;BME280;45672;51.612;5.536;2023-01-28T13:31:06;102872.66;;;3.45;74.63
59787;BME280;45672;51.612;5.536;2023-01-28T13:33:38;102862.78;;;3.28;74.38
59787;BME280;45672;51.612;5.536;2023-01-28T13:39:05;102863.00;;;3.22;75.29
59787;BME280;45672;51.612;5.536;2023-01-28T13:41:49;102857.41;;;3.32;74.75
59787;BME280;45672;51.612;5.536;2023-01-28T13:46:51;102838.75;;;3.14;74.81
59787;BME280;45672;51.612;5.536;2023-01-28T13:49:21;102832.69;;;3.12;74.71
59787;BME280;45672;51.612;5.536;2023-01-28T13:52:11;102827.66;;;3.06;75.91
59787;BME280;45672;51.612;5.536;2023-01-28T13:54:52;102819.03;;;3.02;75.28
59787;BME280;45672;51.612;5.536;2023-01-28T14:00:28;102796.78;;;2.87;76.26
59787;BME280;45672;51.612;5.536;2023-01-28T14:05:53;102797.28;;;2.73;76.31
59787;BME280;45672;51.612;5.536;2023-01-28T14:14:16;102802.03;;;2.64;76.46
59787;BME280;45672;51.612;5.536;2023-01-28T14:16:55;102811.03;;;2.56;76.80
59787;BME280;45672;51.612;5.536;2023-01-28T14:19:27;102812.75;;;2.57;76.60
59787;BME280;45672;51.612;5.536;2023-01-28T14:21:54;102829.31;;;2.59;76.46
59787;BME280;45672;51.612;5.536;2023-01-28T14:24:20;102842.78;;;2.50;77.24
59787;BME280;45672;51.612;5.536;2023-01-28T14:30:12;102847.22;;;2.48;77.90
59787;BME280;45672;51.612;5.536;2023-01-28T14:32:45;102841.06;;;2.49;77.93
59787;BME280;45672;51.612;5.536;2023-01-28T14:35:18;102830.50;;;2.51;77.85
59787;BME280;45672;51.612;5.536;2023-01-28T14:37:44;102837.47;;;2.52;78.23
59787;BME280;45672;51.612;5.536;2023-01-28T14:40:16;102838.88;;;2.62;77.84
59787;BME280;45672;51.612;5.536;2023-01-28T14:42:45;102852.13;;;2.59;77.50
59787;BME280;45672;51.612;5.536;2023-01-28T14:51:00;102856.78;;;2.76;78.32
59787;BME280;45672;51.612;5.536;2023-01-28T14:58:56;102843.09;;;2.91;77.27